createdAt,value
2017-10-19T00:00:59.316Z,99.90
2017-10-19T00:03:26.815Z,99.90
2017-10-19T00:05:54.327Z,99.90
2017-10-19T00:08:22.589Z,99.90
2017-10-19T00:10:50.871Z,99.90
2017-10-19T00:13:19.133Z,99.90
2017-10-19T00:15:46.648Z,99.90
2017-10-19T00:18:14.139Z,99.90
2017-10-19T00:20:41.656Z,99.90
2017-10-19T00:23:09.155Z,99.90
2017-10-19T00:25:36.687Z,99.90
2017-10-19T00:28:04.188Z,99.90
2017-10-19T00:30:32.472Z,99.90
2017-10-19T00:33:00.735Z,99.90
2017-10-19T00:35:29.023Z,99.90
2017-10-19T00:37:57.287Z,99.90
2017-10-19T00:40:24.807Z,99.90
2017-10-19T00:42:52.312Z,99.90
2017-10-19T00:45:20.580Z,99.90
2017-10-19T00:47:48.099Z,99.90
2017-10-19T00:50:15.595Z,99.90
2017-10-19T00:52:43.108Z,99.90
2017-10-19T00:55:10.599Z,99.90
2017-10-19T00:57:38.111Z,99.90
2017-10-19T01:00:05.613Z,99.90
2017-10-19T01:02:33.141Z,99.90
2017-10-19T01:05:00.636Z,99.90
2017-10-19T01:07:28.150Z,99.90
2017-10-19T01:09:55.647Z,99.90
2017-10-19T01:12:23.168Z,99.90
2017-10-19T01:14:50.663Z,99.90
2017-10-19T01:17:18.178Z,99.90
2017-10-19T01:19:45.671Z,99.90
2017-10-19T01:22:13.192Z,99.90
2017-10-19T01:24:40.686Z,99.90
2017-10-19T01:27:08.200Z,99.90
2017-10-19T01:29:35.698Z,99.90
2017-10-19T01:32:03.963Z,99.90
2017-10-19T01:34:31.485Z,99.90
2017-10-19T01:36:58.995Z,99.90
2017-10-19T01:39:26.503Z,99.90
2017-10-19T01:41:54.004Z,99.90
2017-10-19T01:44:21.522Z,99.90
2017-10-19T01:46:49.019Z,99.90
2017-10-19T01:49:16.530Z,99.90
2017-10-19T01:51:44.022Z,99.90
2017-10-19T01:54:11.532Z,99.90
2017-10-19T01:56:39.803Z,99.90
2017-10-19T01:59:08.083Z,99.90
2017-10-19T02:01:36.347Z,99.90
2017-10-19T02:04:03.887Z,99.90
2017-10-19T02:06:31.388Z,99.90
2017-10-19T02:08:58.888Z,99.90
2017-10-19T02:11:26.399Z,99.90
2017-10-19T02:13:54.660Z,99.90
2017-10-19T02:16:22.943Z,99.90
2017-10-19T02:18:51.214Z,99.90
2017-10-19T02:21:19.496Z,99.90
2017-10-19T02:23:47.759Z,99.90
2017-10-19T02:26:15.323Z,99.90
2017-10-19T02:28:43.587Z,99.90
2017-10-19T02:31:11.108Z,99.90
2017-10-19T02:33:38.598Z,99.90
2017-10-19T02:36:06.120Z,99.90
2017-10-19T02:38:33.616Z,99.90
2017-10-19T02:41:01.691Z,99.90
2017-10-19T02:43:29.186Z,99.90
2017-10-19T02:45:56.695Z,99.90
2017-10-19T02:48:24.187Z,99.90
2017-10-19T02:50:52.452Z,99.90
2017-10-19T02:53:20.736Z,99.90
2017-10-19T02:55:48.996Z,99.90
2017-10-19T02:58:16.517Z,99.90
2017-10-19T03:00:44.014Z,99.90
2017-10-19T03:03:11.522Z,99.90
2017-10-19T03:05:39.023Z,99.90
2017-10-19T03:08:06.540Z,99.90
2017-10-19T03:10:34.031Z,99.90
2017-10-19T03:13:01.548Z,99.90
2017-10-19T03:15:29.052Z,99.90
2017-10-19T03:17:56.702Z,99.90
2017-10-19T03:20:24.194Z,99.90
2017-10-19T03:22:52.475Z,99.90
2017-10-19T03:25:20.730Z,99.90
2017-10-19T03:27:48.253Z,99.90
2017-10-19T03:30:16.022Z,99.90
2017-10-19T03:32:44.329Z,99.90
2017-10-19T03:35:12.615Z,99.90
2017-10-19T03:37:40.879Z,99.90
2017-10-19T03:40:08.799Z,99.90
2017-10-19T03:42:36.295Z,99.90
2017-10-19T03:45:03.813Z,99.90
2017-10-19T03:47:31.307Z,99.90
2017-10-19T03:49:58.818Z,99.90
2017-10-19T03:52:26.319Z,99.90
2017-10-19T03:54:53.840Z,99.90
2017-10-19T03:57:21.338Z,99.90
2017-10-19T03:59:48.850Z,99.90
2017-10-19T04:02:16.342Z,99.90
2017-10-19T04:04:43.850Z,99.90
2017-10-19T04:07:12.120Z,99.90
2017-10-19T04:09:40.431Z,99.90
2017-10-19T04:12:07.923Z,99.90
2017-10-19T04:14:35.429Z,99.90
2017-10-19T04:17:02.942Z,99.90
2017-10-19T04:19:30.443Z,99.90
2017-10-19T04:21:57.964Z,99.90
2017-10-19T04:24:25.454Z,99.90
2017-10-19T04:26:52.975Z,99.90
2017-10-19T04:29:20.471Z,99.90
2017-10-19T04:31:47.987Z,99.90
2017-10-19T04:34:15.495Z,99.90
2017-10-19T04:36:43.014Z,99.90
2017-10-19T04:39:10.506Z,99.90
2017-10-19T04:41:38.024Z,99.90
2017-10-19T04:44:05.520Z,99.90
2017-10-19T04:46:33.040Z,99.90
2017-10-19T04:49:00.538Z,99.90
2017-10-19T04:51:28.071Z,99.90
2017-10-19T04:53:56.330Z,99.90
2017-10-19T04:56:23.835Z,99.90
2017-10-19T04:58:51.347Z,99.90
2017-10-19T05:01:18.843Z,99.90
2017-10-19T05:03:46.359Z,99.90
2017-10-19T05:06:15.463Z,99.90
2017-10-19T05:08:42.979Z,99.90
2017-10-19T05:11:10.477Z,99.90
2017-10-19T05:13:37.994Z,99.90
2017-10-19T05:16:05.491Z,99.90
2017-10-19T05:18:33.006Z,99.90
2017-10-19T05:21:00.504Z,99.90
2017-10-19T05:23:28.030Z,99.90
2017-10-19T05:25:55.522Z,99.90
2017-10-19T05:28:23.040Z,99.90
2017-10-19T05:30:50.541Z,99.90
2017-10-19T05:33:18.060Z,99.90
2017-10-19T05:35:45.564Z,99.90
2017-10-19T05:38:13.079Z,99.90
2017-10-19T05:40:41.466Z,99.90
2017-10-19T05:43:08.977Z,99.90
2017-10-19T05:45:37.255Z,99.90
2017-10-19T05:48:05.511Z,99.90
2017-10-19T05:50:33.027Z,99.90
2017-10-19T05:53:00.543Z,99.90
2017-10-19T05:55:28.823Z,99.90
2017-10-19T05:57:57.082Z,99.90
2017-10-19T06:00:25.360Z,99.90
2017-10-19T06:02:53.631Z,99.90
2017-10-19T06:05:21.918Z,99.90
2017-10-19T06:07:50.201Z,99.90
2017-10-19T06:10:18.486Z,99.90
2017-10-19T06:12:45.991Z,99.90
2017-10-19T06:15:13.503Z,99.90
2017-10-19T06:17:41.005Z,99.90
2017-10-19T06:20:08.519Z,99.90
2017-10-19T06:22:36.016Z,99.90
2017-10-19T06:25:03.543Z,99.90
2017-10-19T06:27:31.042Z,99.90
2017-10-19T06:29:58.561Z,99.90
2017-10-19T06:32:26.059Z,99.90
2017-10-19T06:34:53.593Z,99.90
2017-10-19T06:37:21.095Z,99.90
2017-10-19T06:39:48.600Z,99.90
2017-10-19T06:42:16.118Z,99.90
2017-10-19T06:44:44.379Z,99.90
2017-10-19T06:47:11.889Z,99.90
2017-10-19T06:49:39.389Z,99.90
2017-10-19T06:52:06.905Z,99.90
2017-10-19T06:54:34.403Z,99.90
2017-10-19T06:57:01.916Z,99.90
2017-10-19T06:59:29.414Z,99.90
2017-10-19T07:01:56.932Z,99.90
2017-10-19T07:04:24.436Z,99.90
2017-10-19T07:06:51.951Z,99.90
2017-10-19T07:09:19.454Z,99.90
2017-10-19T07:11:46.965Z,99.90
2017-10-19T07:14:14.458Z,99.90
2017-10-19T07:16:41.971Z,99.90
2017-10-19T07:19:09.473Z,99.90
2017-10-19T07:21:36.997Z,99.90
2017-10-19T07:24:04.496Z,99.90
2017-10-19T07:26:32.033Z,99.90
2017-10-19T07:28:59.532Z,99.90
2017-10-19T07:31:27.032Z,99.90
2017-10-19T07:33:54.553Z,99.90
2017-10-19T07:36:22.823Z,99.90
2017-10-19T07:38:51.395Z,99.90
2017-10-19T07:41:18.905Z,99.90
2017-10-19T07:43:46.431Z,99.90
2017-10-19T07:46:14.706Z,99.90
2017-10-19T07:51:16.947Z,99.90
2017-10-19T07:53:44.463Z,99.90
2017-10-19T07:56:12.722Z,99.90
2017-10-19T07:58:41.006Z,99.90
2017-10-19T08:01:09.271Z,99.90
2017-10-19T08:03:36.791Z,99.90
2017-10-19T08:06:04.308Z,99.90
2017-10-19T08:08:31.840Z,99.90
2017-10-19T08:10:59.334Z,99.90
2017-10-19T08:13:26.846Z,99.90
2017-10-19T08:15:54.348Z,99.90
2017-10-19T08:18:21.875Z,99.90
2017-10-19T08:20:49.370Z,99.90
2017-10-19T08:23:16.910Z,99.90
2017-10-19T08:25:45.171Z,99.90
2017-10-19T08:28:13.440Z,99.90
2017-10-19T08:30:40.971Z,99.90
2017-10-19T08:33:08.471Z,99.90
2017-10-19T08:35:36.757Z,99.90
2017-10-19T08:38:05.024Z,99.90
2017-10-19T08:40:33.307Z,99.90
2017-10-19T08:43:01.576Z,99.90
2017-10-19T08:45:30.131Z,99.90
2017-10-19T08:47:57.632Z,99.90
2017-10-19T08:50:25.151Z,99.90
2017-10-19T08:52:52.648Z,99.90
2017-10-19T08:55:20.167Z,99.90
2017-10-19T08:57:47.668Z,99.90
2017-10-19T09:00:15.185Z,99.90
2017-10-19T09:02:42.683Z,99.90
2017-10-19T09:05:10.200Z,99.90
2017-10-19T09:07:37.703Z,99.90
2017-10-19T09:10:05.234Z,99.90
2017-10-19T09:12:33.507Z,99.90
2017-10-19T09:15:01.795Z,99.90
2017-10-19T09:17:30.059Z,99.90
2017-10-19T09:19:58.367Z,99.90
2017-10-19T09:22:25.866Z,99.90
2017-10-19T09:24:53.363Z,99.90
2017-10-19T09:27:21.648Z,99.90
2017-10-19T09:29:49.155Z,99.90
2017-10-19T09:32:16.675Z,99.90
2017-10-19T09:34:44.185Z,99.90
2017-10-19T09:37:11.695Z,99.90
2017-10-19T09:39:39.197Z,99.90
2017-10-19T09:42:06.765Z,99.90
2017-10-19T09:44:34.275Z,99.90
2017-10-19T09:47:01.795Z,99.90
2017-10-19T09:49:30.059Z,99.90
2017-10-19T09:51:57.580Z,99.90
2017-10-19T09:54:25.082Z,99.90
2017-10-19T09:56:53.371Z,99.90
2017-10-19T09:59:21.639Z,99.90
2017-10-19T10:01:49.926Z,99.90
2017-10-19T10:04:18.187Z,99.90
2017-10-19T10:06:46.470Z,99.90
2017-10-19T10:09:14.746Z,99.90
2017-10-19T10:11:43.035Z,99.90
2017-10-19T10:14:10.535Z,99.90
2017-10-19T10:16:38.083Z,99.90
2017-10-19T10:19:05.588Z,99.90
2017-10-19T10:21:33.090Z,99.90
2017-10-19T10:24:00.615Z,99.90
2017-10-19T10:26:28.878Z,99.90
2017-10-19T10:28:56.396Z,99.90
2017-10-19T10:31:23.899Z,99.90
2017-10-19T10:33:52.199Z,99.90
2017-10-19T10:36:19.700Z,99.90
2017-10-19T10:38:47.219Z,99.90
2017-10-19T10:41:14.715Z,99.90
2017-10-19T10:43:42.236Z,99.90
2017-10-19T10:46:09.735Z,99.90
2017-10-19T10:48:37.260Z,99.90
2017-10-19T10:51:04.772Z,99.90
2017-10-19T10:53:32.292Z,99.90
2017-10-19T10:55:59.794Z,99.90
2017-10-19T10:58:30.097Z,99.90
2017-10-19T11:00:57.608Z,99.90
2017-10-19T11:03:25.132Z,99.90
2017-10-19T11:05:52.636Z,99.90
2017-10-19T11:08:20.155Z,99.90
2017-10-19T11:10:48.428Z,99.90
2017-10-19T11:13:16.735Z,99.90
2017-10-19T11:15:44.239Z,99.90
2017-10-19T11:18:11.757Z,99.90
2017-10-19T11:20:39.282Z,99.90
2017-10-19T11:23:07.547Z,98.90
2017-10-19T11:25:35.079Z,98.90
2017-10-19T11:28:02.580Z,97.30
2017-10-19T11:30:30.874Z,94.80
2017-10-19T11:32:58.385Z,94.70
2017-10-19T11:35:25.903Z,94.90
2017-10-19T11:37:53.403Z,95.00
2017-10-19T11:40:20.916Z,96.50
2017-10-19T11:42:48.416Z,99.90
2017-10-19T11:45:15.939Z,97.30
2017-10-19T11:47:43.438Z,96.60
2017-10-19T11:50:10.960Z,99.90
2017-10-19T11:52:38.463Z,99.90
2017-10-19T11:55:05.979Z,99.80
2017-10-19T11:57:33.480Z,97.80
2017-10-19T12:00:01.004Z,99.90
2017-10-19T12:02:28.503Z,99.10
2017-10-19T12:04:56.786Z,99.90
2017-10-19T12:07:25.054Z,99.90
2017-10-19T12:09:53.344Z,98.30
2017-10-19T12:12:21.615Z,99.90
2017-10-19T12:14:49.883Z,99.40
2017-10-19T12:17:18.177Z,97.00
2017-10-19T12:19:46.459Z,98.50
2017-10-19T12:22:13.980Z,98.40
2017-10-19T12:24:41.488Z,95.10
2017-10-19T12:27:09.003Z,94.80
2017-10-19T12:29:36.515Z,94.20
2017-10-19T12:32:04.048Z,96.60
2017-10-19T12:34:31.557Z,97.30
2017-10-19T12:36:59.071Z,99.20
2017-10-19T12:39:26.580Z,99.40
2017-10-19T12:41:54.100Z,99.90
2017-10-19T12:44:21.595Z,97.70
2017-10-19T12:46:49.107Z,96.90
2017-10-19T12:49:16.609Z,96.30
2017-10-19T12:51:44.127Z,96.60
2017-10-19T12:54:11.632Z,99.90
2017-10-19T12:56:39.151Z,97.90
2017-10-19T12:59:06.660Z,96.60
2017-10-19T13:01:34.196Z,97.70
2017-10-19T13:04:01.703Z,98.50
2017-10-19T13:06:29.224Z,97.00
2017-10-19T13:08:56.723Z,96.90
2017-10-19T13:11:24.228Z,97.60
2017-10-19T13:13:51.748Z,94.60
2017-10-19T13:16:19.264Z,95.40
2017-10-19T13:18:46.788Z,95.30
2017-10-19T13:21:14.291Z,95.80
2017-10-19T13:23:42.575Z,95.60
2017-10-19T13:26:10.847Z,95.10
2017-10-19T13:28:39.132Z,95.10
2017-10-19T13:31:07.405Z,94.80
2017-10-19T13:33:35.682Z,96.20
2017-10-19T13:36:03.951Z,93.70
2017-10-19T13:38:32.231Z,94.80
2017-10-19T13:41:00.716Z,94.60
2017-10-19T13:43:29.000Z,95.10
2017-10-19T13:45:56.515Z,95.10
2017-10-19T13:48:24.036Z,96.10
2017-10-19T13:50:51.539Z,96.50
2017-10-19T13:53:19.066Z,95.90
2017-10-19T13:55:46.564Z,98.50
2017-10-19T13:58:14.084Z,97.10
2017-10-19T14:00:41.583Z,97.30
2017-10-19T14:03:09.873Z,95.60
2017-10-19T14:05:38.137Z,98.20
2017-10-19T14:08:06.427Z,96.90
2017-10-19T14:10:34.700Z,97.00
2017-10-19T14:13:02.970Z,97.40
2017-10-19T14:15:31.259Z,97.00
2017-10-19T14:17:59.531Z,96.60
2017-10-19T14:20:27.816Z,95.90
2017-10-19T14:22:55.319Z,95.90
2017-10-19T14:25:22.844Z,97.60
2017-10-19T14:27:50.352Z,94.10
2017-10-19T14:30:17.884Z,95.40
2017-10-19T14:32:45.383Z,95.60
2017-10-19T14:35:13.680Z,95.20
2017-10-19T14:37:41.199Z,95.10
2017-10-19T14:40:08.731Z,96.90
2017-10-19T14:42:36.243Z,95.40
2017-10-19T14:45:04.532Z,93.50
2017-10-19T14:47:32.036Z,93.50
2017-10-19T14:49:59.554Z,92.90
2017-10-19T14:52:27.056Z,95.40
2017-10-19T14:54:54.576Z,95.70
2017-10-19T14:57:22.084Z,95.50
2017-10-19T14:59:49.611Z,94.30
2017-10-19T15:02:17.112Z,94.50
2017-10-19T15:04:44.912Z,94.80
2017-10-19T15:07:12.416Z,96.10
2017-10-19T15:09:39.914Z,96.00
2017-10-19T15:12:08.200Z,97.00
2017-10-19T15:14:35.700Z,97.00
2017-10-19T15:17:03.215Z,97.60
2017-10-19T15:19:30.714Z,97.50
2017-10-19T15:21:58.230Z,98.00
2017-10-19T15:24:25.730Z,98.10
2017-10-19T15:26:53.251Z,98.00
2017-10-19T15:29:20.767Z,98.40
2017-10-19T15:31:48.287Z,98.60
2017-10-19T15:34:15.788Z,99.90
2017-10-19T15:36:43.303Z,99.90
2017-10-19T15:39:10.802Z,99.90
2017-10-19T15:41:38.334Z,99.90
2017-10-19T15:44:05.835Z,99.90
2017-10-19T15:46:34.119Z,99.90
2017-10-19T15:49:02.391Z,99.90
2017-10-19T15:51:30.680Z,99.90
2017-10-19T15:53:58.179Z,99.90
2017-10-19T15:56:25.699Z,99.90
2017-10-19T15:58:53.199Z,99.90
2017-10-19T16:01:20.742Z,99.90
2017-10-19T16:03:48.239Z,99.90
2017-10-19T16:06:15.736Z,99.90
2017-10-19T16:08:43.264Z,99.90
2017-10-19T16:11:11.531Z,99.90
2017-10-19T16:13:39.060Z,99.90
2017-10-19T16:16:06.567Z,99.90
2017-10-19T16:18:34.856Z,99.90
2017-10-19T16:21:03.225Z,99.90
2017-10-19T16:23:31.512Z,99.90
2017-10-19T16:25:59.017Z,99.90
2017-10-19T16:28:26.542Z,99.90
2017-10-19T16:30:54.052Z,99.90
2017-10-19T16:33:21.572Z,99.90
2017-10-19T16:35:49.078Z,99.90
2017-10-19T16:38:17.371Z,99.90
2017-10-19T16:40:45.631Z,99.90
2017-10-19T16:43:13.915Z,99.90
2017-10-19T16:45:42.182Z,99.90
2017-10-19T16:48:10.462Z,99.90
2017-10-19T16:50:38.735Z,99.90
2017-10-19T16:53:07.025Z,99.90
2017-10-19T16:55:35.296Z,99.90
2017-10-19T16:58:03.597Z,99.90
2017-10-19T17:00:31.098Z,99.90
2017-10-19T17:02:58.602Z,99.90
2017-10-19T17:05:26.119Z,99.90
2017-10-19T17:07:53.631Z,99.90
2017-10-19T17:10:21.176Z,99.90
2017-10-19T17:12:48.687Z,99.90
2017-10-19T17:15:16.207Z,99.90
2017-10-19T17:17:43.711Z,99.90
2017-10-19T17:20:11.231Z,99.90
2017-10-19T17:22:39.084Z,99.90
2017-10-19T17:25:06.603Z,99.90
2017-10-19T17:27:34.104Z,99.90
2017-10-19T17:30:01.623Z,99.90
2017-10-19T17:32:29.127Z,99.90
2017-10-19T17:34:56.651Z,99.90
2017-10-19T17:37:24.924Z,99.90
2017-10-19T17:39:53.203Z,99.90
2017-10-19T17:42:21.475Z,99.90
2017-10-19T17:44:49.768Z,99.90
2017-10-19T17:47:17.287Z,99.90
2017-10-19T17:49:44.817Z,99.90
2017-10-19T17:52:12.320Z,99.90
2017-10-19T17:54:40.627Z,99.90
2017-10-19T17:57:08.131Z,99.90
2017-10-19T17:59:35.640Z,99.90
2017-10-19T18:02:03.465Z,99.90
2017-10-19T18:04:30.978Z,99.90
2017-10-19T18:06:58.504Z,99.90
2017-10-19T18:09:26.779Z,99.90
2017-10-19T18:11:55.066Z,99.90
2017-10-19T18:14:23.335Z,99.90
2017-10-19T18:16:51.625Z,99.90
2017-10-19T18:19:19.126Z,99.90
2017-10-19T18:21:46.653Z,99.90
2017-10-19T18:24:14.160Z,99.90
2017-10-19T18:26:41.682Z,99.90
2017-10-19T18:29:09.187Z,99.90
2017-10-19T18:31:36.712Z,99.90
2017-10-19T18:34:04.220Z,99.90
2017-10-19T18:36:32.508Z,99.90
2017-10-19T18:39:00.021Z,99.90
2017-10-19T18:41:27.564Z,99.90
2017-10-19T18:43:55.072Z,99.90
2017-10-19T18:46:23.352Z,99.90
2017-10-19T18:48:50.863Z,99.90
2017-10-19T18:51:18.391Z,99.90
2017-10-19T18:53:45.907Z,99.90
2017-10-19T18:56:13.431Z,99.90
2017-10-19T18:58:40.975Z,99.90
2017-10-19T19:01:08.547Z,99.90
2017-10-19T19:03:36.076Z,99.90
2017-10-19T19:06:03.701Z,99.90
2017-10-19T19:08:31.999Z,99.90
2017-10-19T19:10:59.532Z,99.90
2017-10-19T19:13:27.098Z,99.90
2017-10-19T19:15:55.399Z,99.90
2017-10-19T19:18:22.930Z,99.90
2017-10-19T19:20:50.458Z,99.90
2017-10-19T19:23:17.973Z,99.90
2017-10-19T19:25:45.551Z,99.90
2017-10-19T19:28:13.076Z,99.90
2017-10-19T19:30:41.403Z,99.90
2017-10-19T19:33:08.947Z,99.90
2017-10-19T19:35:36.470Z,99.90
2017-10-19T19:38:04.738Z,99.90
2017-10-19T19:40:33.055Z,99.90
2017-10-19T19:43:00.560Z,99.90
2017-10-19T19:45:28.095Z,99.90
2017-10-19T19:47:55.890Z,99.90
2017-10-19T19:50:24.180Z,99.90
2017-10-19T19:52:52.468Z,99.90
2017-10-19T19:55:20.759Z,99.90
2017-10-19T19:57:48.296Z,99.90
2017-10-19T20:00:16.567Z,99.90
2017-10-19T20:02:44.875Z,99.90
2017-10-19T20:05:12.388Z,99.90
2017-10-19T20:07:40.682Z,99.90
2017-10-19T20:10:08.959Z,99.90
2017-10-19T20:12:37.239Z,99.90
2017-10-19T20:15:05.507Z,99.90
2017-10-19T20:17:33.803Z,99.90
2017-10-19T20:20:01.316Z,99.90
2017-10-19T20:22:28.865Z,99.90
2017-10-19T20:24:56.363Z,99.90
2017-10-19T20:27:24.651Z,99.90
2017-10-19T20:29:52.151Z,99.90
2017-10-19T20:32:19.671Z,99.90
2017-10-19T20:34:47.238Z,99.90
2017-10-19T20:37:14.757Z,99.90
2017-10-19T20:39:42.263Z,99.90
2017-10-19T20:42:09.787Z,99.90
2017-10-19T20:44:37.291Z,99.90
2017-10-19T20:47:04.807Z,99.90
2017-10-19T20:49:33.108Z,99.90
2017-10-19T20:52:00.632Z,99.90
2017-10-19T20:54:28.903Z,99.90
2017-10-19T20:56:57.188Z,99.90
2017-10-19T20:59:25.458Z,99.90
2017-10-19T21:01:53.751Z,99.90
2017-10-19T21:04:21.255Z,99.90
2017-10-19T21:06:48.780Z,99.90
2017-10-19T21:09:16.287Z,99.90
2017-10-19T21:11:43.811Z,99.90
2017-10-19T21:14:11.319Z,99.90
2017-10-19T21:16:38.847Z,99.90
2017-10-19T21:19:06.355Z,99.90
2017-10-19T21:21:34.654Z,99.90
2017-10-19T21:24:02.162Z,99.90
2017-10-19T21:26:29.687Z,99.90
2017-10-19T21:28:57.199Z,99.90
2017-10-19T21:31:25.544Z,99.90
2017-10-19T21:33:53.089Z,99.90
2017-10-19T21:36:20.661Z,99.90
2017-10-19T21:41:22.178Z,99.90
2017-10-19T21:43:49.732Z,99.90
2017-10-19T21:46:17.333Z,99.90
2017-10-19T21:48:45.326Z,99.90
2017-10-19T21:51:12.898Z,99.90
2017-10-19T21:53:41.406Z,99.90
2017-10-19T21:56:08.943Z,99.90
2017-10-19T21:58:37.291Z,99.90
2017-10-19T22:01:04.869Z,99.90
2017-10-19T22:03:33.232Z,99.90
2017-10-19T22:06:00.760Z,99.90
2017-10-19T22:08:28.284Z,99.90
2017-10-19T22:10:56.564Z,99.90
2017-10-19T22:13:24.855Z,99.90
2017-10-19T22:15:52.362Z,99.90
2017-10-19T22:20:54.351Z,99.90
2017-10-19T22:23:21.875Z,99.90
2017-10-19T22:25:49.387Z,99.90
2017-10-19T22:28:17.676Z,99.90
2017-10-19T22:30:45.176Z,99.90
2017-10-19T22:33:13.021Z,99.90
2017-10-19T22:35:40.515Z,99.90
2017-10-19T22:38:08.026Z,99.90
2017-10-19T22:40:35.535Z,99.90
2017-10-19T22:43:03.055Z,99.90
2017-10-19T22:45:30.567Z,99.90
2017-10-19T22:47:58.088Z,99.90
2017-10-19T22:50:25.587Z,99.90
2017-10-19T22:52:53.871Z,99.90
2017-10-19T22:55:22.142Z,99.90
2017-10-19T22:57:50.431Z,99.90
2017-10-19T23:00:18.697Z,99.90
2017-10-19T23:02:46.996Z,99.90
2017-10-19T23:05:14.498Z,99.90
2017-10-19T23:07:42.011Z,99.90
2017-10-19T23:10:09.515Z,99.90
2017-10-19T23:12:37.026Z,99.90
2017-10-19T23:15:04.529Z,99.90
2017-10-19T23:17:32.054Z,99.90
2017-10-19T23:19:59.559Z,99.90
2017-10-19T23:22:27.091Z,99.90
2017-10-19T23:24:54.586Z,99.90
2017-10-19T23:27:22.106Z,99.90
2017-10-19T23:29:49.615Z,99.90
2017-10-19T23:32:17.894Z,99.90
2017-10-19T23:34:46.159Z,99.90
2017-10-19T23:37:14.443Z,99.90
2017-10-19T23:39:42.711Z,99.90
2017-10-19T23:42:11.003Z,99.90
2017-10-19T23:44:39.270Z,99.90
2017-10-19T23:47:07.559Z,99.90
2017-10-19T23:49:35.056Z,99.90
2017-10-19T23:52:02.580Z,99.90
2017-10-19T23:54:30.081Z,99.90
2017-10-19T23:56:57.591Z,99.90
2017-10-19T23:59:25.091Z,99.90
